sensor_id;sensor_type;location;lat;lon;timestamp;pressure;altitude;pressure_sealevel;temperature;humidity
75312;BME280;63906;55.686;37.532;2022-12-13T00:00:07;98429.63;;;1.14;85.88
75312;BME280;63906;55.686;37.532;2022-12-13T00:05:13;98409.03;;;1.04;85.70
75312;BME280;63906;55.686;37.532;2022-12-13T00:10:13;98447.34;;;1.43;85.57
75312;BME280;63906;55.686;37.532;2022-12-13T00:15:14;98458.84;;;1.41;85.08
75312;BME280;63906;55.686;37.532;2022-12-13T00:20:14;98422.38;;;1.34;86.25
75312;BME280;63906;55.686;37.532;2022-12-13T00:25:15;98470.03;;;1.49;86.04
75312;BME280;63906;55.686;37.532;2022-12-13T00:30:19;98456.56;;;1.38;86.29
75312;BME280;63906;55.686;37.532;2022-12-13T00:35:19;98457.38;;;1.46;86.27
75312;BME280;63906;55.686;37.532;2022-12-13T00:40:20;98422.69;;;1.23;86.34
75312;BME280;63906;55.686;37.532;2022-12-13T00:45:20;98439.53;;;1.27;86.22
75312;BME280;63906;55.686;37.532;2022-12-13T00:50:21;98445.41;;;1.45;86.86
75312;BME280;63906;55.686;37.532;2022-12-13T00:55:21;98423.13;;;1.10;86.31
75312;BME280;63906;55.686;37.532;2022-12-13T01:00:22;98406.47;;;1.21;86.04
75312;BME280;63906;55.686;37.532;2022-12-13T01:05:24;98460.28;;;1.35;86.39
75312;BME280;63906;55.686;37.532;2022-12-13T01:10:25;98421.91;;;1.39;86.16
75312;BME280;63906;55.686;37.532;2022-12-13T01:15:26;98433.72;;;1.41;86.24
75312;BME280;63906;55.686;37.532;2022-12-13T01:20:27;98440.38;;;1.44;86.21
75312;BME280;63906;55.686;37.532;2022-12-13T01:25:27;98420.75;;;1.41;86.70
75312;BME280;63906;55.686;37.532;2022-12-13T01:30:28;98434.38;;;1.59;86.17
75312;BME280;63906;55.686;37.532;2022-12-13T01:35:28;98406.00;;;1.42;86.24
75312;BME280;63906;55.686;37.532;2022-12-13T01:40:29;98398.06;;;1.19;86.69
75312;BME280;63906;55.686;37.532;2022-12-13T01:45:29;98411.38;;;1.32;86.63
75312;BME280;63906;55.686;37.532;2022-12-13T01:50:36;98448.66;;;1.72;86.47
75312;BME280;63906;55.686;37.532;2022-12-13T01:55:38;98420.75;;;1.66;86.62
75312;BME280;63906;55.686;37.532;2022-12-13T02:00:39;98417.53;;;1.55;86.73
75312;BME280;63906;55.686;37.532;2022-12-13T02:05:55;98423.81;;;1.28;86.47
75312;BME280;63906;55.686;37.532;2022-12-13T02:11:00;98440.53;;;1.50;86.87
75312;BME280;63906;55.686;37.532;2022-12-13T02:21:28;98460.97;;;1.78;86.60
75312;BME280;63906;55.686;37.532;2022-12-13T02:27:08;98431.78;;;1.68;85.87
75312;BME280;63906;55.686;37.532;2022-12-13T02:37:25;98357.88;;;1.15;86.50
75312;BME280;63906;55.686;37.532;2022-12-13T02:42:36;98447.00;;;1.54;86.22
75312;BME280;63906;55.686;37.532;2022-12-13T02:47:40;98446.38;;;1.52;86.38
75312;BME280;63906;55.686;37.532;2022-12-13T02:52:42;98443.28;;;1.49;85.95
75312;BME280;63906;55.686;37.532;2022-12-13T02:57:45;98458.38;;;1.78;86.81
75312;BME280;63906;55.686;37.532;2022-12-13T03:03:19;98459.34;;;1.60;85.80
75312;BME280;63906;55.686;37.532;2022-12-13T03:08:25;98409.56;;;1.24;86.11
75312;BME280;63906;55.686;37.532;2022-12-13T03:13:56;98430.97;;;1.51;86.91
75312;BME280;63906;55.686;37.532;2022-12-13T03:18:59;98428.19;;;1.36;86.27
75312;BME280;63906;55.686;37.532;2022-12-13T03:24:00;98443.13;;;1.58;86.47
75312;BME280;63906;55.686;37.532;2022-12-13T03:29:00;98459.84;;;1.64;86.09
75312;BME280;63906;55.686;37.532;2022-12-13T03:34:01;98456.25;;;1.49;86.17
75312;BME280;63906;55.686;37.532;2022-12-13T03:39:02;98435.66;;;1.39;85.82
75312;BME280;63906;55.686;37.532;2022-12-13T03:44:04;98470.22;;;1.56;85.48
75312;BME280;63906;55.686;37.532;2022-12-13T03:49:05;98446.69;;;1.41;85.56
75312;BME280;63906;55.686;37.532;2022-12-13T03:54:05;98430.09;;;1.18;86.01
75312;BME280;63906;55.686;37.532;2022-12-13T03:59:06;98443.09;;;1.26;86.14
75312;BME280;63906;55.686;37.532;2022-12-13T04:04:06;98406.47;;;1.13;85.73
75312;BME280;63906;55.686;37.532;2022-12-13T04:09:07;98429.94;;;1.11;85.64
75312;BME280;63906;55.686;37.532;2022-12-13T04:14:07;98463.88;;;1.58;85.75
75312;BME280;63906;55.686;37.532;2022-12-13T04:19:08;98361.41;;;0.97;86.25
75312;BME280;63906;55.686;37.532;2022-12-13T04:24:08;98425.31;;;1.31;85.97
75312;BME280;63906;55.686;37.532;2022-12-13T04:29:09;98439.22;;;1.30;86.90
75312;BME280;63906;55.686;37.532;2022-12-13T04:34:09;98435.97;;;1.28;86.25
75312;BME280;63906;55.686;37.532;2022-12-13T04:39:10;98462.91;;;1.43;86.78
75312;BME280;63906;55.686;37.532;2022-12-13T04:44:10;98431.75;;;1.27;86.34
75312;BME280;63906;55.686;37.532;2022-12-13T04:49:10;98430.31;;;1.24;86.34
75312;BME280;63906;55.686;37.532;2022-12-13T04:54:11;98474.59;;;1.55;86.85
75312;BME280;63906;55.686;37.532;2022-12-13T04:59:11;98486.28;;;1.76;86.09
75312;BME280;63906;55.686;37.532;2022-12-13T05:04:12;98456.75;;;1.44;85.81
75312;BME280;63906;55.686;37.532;2022-12-13T05:09:12;98489.03;;;1.74;86.30
75312;BME280;63906;55.686;37.532;2022-12-13T05:14:13;98495.50;;;1.62;86.65
75312;BME280;63906;55.686;37.532;2022-12-13T05:19:14;98459.50;;;1.67;86.50
75312;BME280;63906;55.686;37.532;2022-12-13T05:24:14;98373.56;;;1.05;86.90
75312;BME280;63906;55.686;37.532;2022-12-13T05:29:15;98457.72;;;1.51;86.65
75312;BME280;63906;55.686;37.532;2022-12-13T05:34:15;98487.25;;;1.75;85.92
75312;BME280;63906;55.686;37.532;2022-12-13T05:39:16;98466.47;;;1.67;86.67
75312;BME280;63906;55.686;37.532;2022-12-13T05:44:16;98462.25;;;1.74;86.59
75312;BME280;63906;55.686;37.532;2022-12-13T05:49:17;98472.44;;;1.43;86.21
75312;BME280;63906;55.686;37.532;2022-12-13T05:54:17;98462.91;;;1.51;86.28
75312;BME280;63906;55.686;37.532;2022-12-13T05:59:18;98465.34;;;1.53;86.38
75312;BME280;63906;55.686;37.532;2022-12-13T06:04:18;98507.38;;;2.05;86.76
75312;BME280;63906;55.686;37.532;2022-12-13T06:09:19;98503.78;;;1.90;86.09
75312;BME280;63906;55.686;37.532;2022-12-13T06:14:20;98494.22;;;1.91;86.16
75312;BME280;63906;55.686;37.532;2022-12-13T06:19:22;98501.34;;;2.05;85.99
75312;BME280;63906;55.686;37.532;2022-12-13T06:24:23;98468.28;;;1.82;85.10
75312;BME280;63906;55.686;37.532;2022-12-13T06:29:23;98502.78;;;2.15;86.45
75312;BME280;63906;55.686;37.532;2022-12-13T06:34:24;98479.47;;;1.75;85.88
75312;BME280;63906;55.686;37.532;2022-12-13T06:39:24;98477.19;;;1.72;86.06
75312;BME280;63906;55.686;37.532;2022-12-13T06:44:25;98511.56;;;1.98;85.62
75312;BME280;63906;55.686;37.532;2022-12-13T06:49:26;98528.44;;;1.94;85.73
75312;BME280;63906;55.686;37.532;2022-12-13T06:54:27;98527.28;;;2.05;86.26
75312;BME280;63906;55.686;37.532;2022-12-13T06:59:27;98559.28;;;2.05;85.19
75312;BME280;63906;55.686;37.532;2022-12-13T07:04:28;98511.25;;;1.93;85.77
75312;BME280;63906;55.686;37.532;2022-12-13T07:09:29;98567.03;;;2.22;85.28
75312;BME280;63906;55.686;37.532;2022-12-13T07:14:30;98566.72;;;2.00;86.04
75312;BME280;63906;55.686;37.532;2022-12-13T07:19:30;98538.81;;;2.02;86.47
75312;BME280;63906;55.686;37.532;2022-12-13T07:24:31;98573.53;;;2.26;86.00
75312;BME280;63906;55.686;37.532;2022-12-13T07:29:31;98576.44;;;1.98;85.82
75312;BME280;63906;55.686;37.532;2022-12-13T07:34:32;98532.28;;;1.74;85.85
75312;BME280;63906;55.686;37.532;2022-12-13T07:39:32;98595.28;;;2.25;85.90
75312;BME280;63906;55.686;37.532;2022-12-13T07:44:33;98607.28;;;2.34;86.07
75312;BME280;63906;55.686;37.532;2022-12-13T07:49:33;98600.47;;;2.16;86.25
75312;BME280;63906;55.686;37.532;2022-12-13T07:54:34;98566.72;;;2.33;85.95
75312;BME280;63906;55.686;37.532;2022-12-13T07:59:35;98562.81;;;2.04;85.88
75312;BME280;63906;55.686;37.532;2022-12-13T08:04:35;98570.94;;;2.09;86.12
75312;BME280;63906;55.686;37.532;2022-12-13T08:09:36;98593.34;;;2.19;86.19
75312;BME280;63906;55.686;37.532;2022-12-13T08:14:37;98601.75;;;2.29;87.00
75312;BME280;63906;55.686;37.532;2022-12-13T08:19:37;98617.47;;;2.03;86.64
75312;BME280;63906;55.686;37.532;2022-12-13T08:24:38;98607.63;;;2.31;86.38
75312;BME280;63906;55.686;37.532;2022-12-13T08:29:39;98614.59;;;2.47;86.58
75312;BME280;63906;55.686;37.532;2022-12-13T08:34:39;98625.94;;;2.29;86.52
75312;BME280;63906;55.686;37.532;2022-12-13T08:39:40;98638.13;;;2.29;86.32
75312;BME280;63906;55.686;37.532;2022-12-13T08:44:41;98599.19;;;2.37;86.41
75312;BME280;63906;55.686;37.532;2022-12-13T08:49:41;98647.88;;;2.76;86.40
75312;BME280;63906;55.686;37.532;2022-12-13T08:54:42;98622.69;;;2.35;85.25
75312;BME280;63906;55.686;37.532;2022-12-13T08:59:44;98634.22;;;2.33;85.62
75312;BME280;63906;55.686;37.532;2022-12-13T09:04:44;98649.13;;;2.23;85.69
75312;BME280;63906;55.686;37.532;2022-12-13T09:09:45;98668.00;;;2.25;86.37
75312;BME280;63906;55.686;37.532;2022-12-13T09:14:45;98648.16;;;2.15;86.48
75312;BME280;63906;55.686;37.532;2022-12-13T09:19:46;98657.44;;;2.18;86.24
75312;BME280;63906;55.686;37.532;2022-12-13T09:24:47;98656.28;;;2.12;86.23
75312;BME280;63906;55.686;37.532;2022-12-13T09:29:47;98646.25;;;2.18;85.91
75312;BME280;63906;55.686;37.532;2022-12-13T09:34:48;98689.41;;;2.35;86.17
75312;BME280;63906;55.686;37.532;2022-12-13T09:39:49;98693.63;;;2.36;86.63
75312;BME280;63906;55.686;37.532;2022-12-13T09:44:58;98683.22;;;2.28;85.87
75312;BME280;63906;55.686;37.532;2022-12-13T09:50:00;98692.50;;;2.30;85.54
75312;BME280;63906;55.686;37.532;2022-12-13T09:55:23;98687.31;;;2.30;86.28
75312;BME280;63906;55.686;37.532;2022-12-13T10:00:28;98647.75;;;1.86;86.10
75312;BME280;63906;55.686;37.532;2022-12-13T10:05:35;98702.66;;;1.99;86.19
75312;BME280;63906;55.686;37.532;2022-12-13T10:10:36;98710.09;;;2.02;85.42
75312;BME280;63906;55.686;37.532;2022-12-13T10:15:40;98726.63;;;1.93;85.44
75312;BME280;63906;55.686;37.532;2022-12-13T10:20:42;98701.84;;;1.56;86.22
75312;BME280;63906;55.686;37.532;2022-12-13T10:30:45;98698.25;;;1.57;85.71
75312;BME280;63906;55.686;37.532;2022-12-13T10:36:04;98739.13;;;1.55;85.73
75312;BME280;63906;55.686;37.532;2022-12-13T10:41:24;98742.97;;;1.51;85.89
75312;BME280;63906;55.686;37.532;2022-12-13T10:46:26;98735.47;;;1.48;86.18
75312;BME280;63906;55.686;37.532;2022-12-13T10:51:37;98719.78;;;1.50;85.31
75312;BME280;63906;55.686;37.532;2022-12-13T10:56:46;98753.34;;;1.51;85.64
75312;BME280;63906;55.686;37.532;2022-12-13T11:01:47;98761.78;;;1.53;86.13
75312;BME280;63906;55.686;37.532;2022-12-13T11:06:48;98757.91;;;1.57;86.46
75312;BME280;63906;55.686;37.532;2022-12-13T11:11:53;98752.81;;;1.48;85.88
75312;BME280;63906;55.686;37.532;2022-12-13T11:16:56;98784.09;;;1.46;85.75
75312;BME280;63906;55.686;37.532;2022-12-13T11:21:57;98781.91;;;1.59;85.89
75312;BME280;63906;55.686;37.532;2022-12-13T11:37:44;98815.63;;;1.16;85.17
75312;BME280;63906;55.686;37.532;2022-12-13T11:42:55;98809.34;;;1.18;84.58
75312;BME280;63906;55.686;37.532;2022-12-13T11:48:18;98785.28;;;0.90;85.05
75312;BME280;63906;55.686;37.532;2022-12-13T11:58:34;98791.66;;;0.78;86.07
75312;BME280;63906;55.686;37.532;2022-12-13T12:03:39;98847.41;;;1.00;86.17
75312;BME280;63906;55.686;37.532;2022-12-13T12:08:53;98847.75;;;1.05;86.12
75312;BME280;63906;55.686;37.532;2022-12-13T12:14:18;98830.91;;;1.01;84.15
75312;BME280;63906;55.686;37.532;2022-12-13T12:19:27;98823.13;;;0.83;83.96
75312;BME280;63906;55.686;37.532;2022-12-13T12:35:12;98830.72;;;0.67;85.26
75312;BME280;63906;55.686;37.532;2022-12-13T13:06:27;98789.34;;;0.39;85.50
75312;BME280;63906;55.686;37.532;2022-12-13T13:11:34;98805.94;;;0.64;85.57
75312;BME280;63906;55.686;37.532;2022-12-13T13:16:40;98795.94;;;0.51;85.19
75312;BME280;63906;55.686;37.532;2022-12-13T13:21:50;98829.16;;;0.74;85.93
75312;BME280;63906;55.686;37.532;2022-12-13T13:26:52;98841.84;;;0.77;85.00
75312;BME280;63906;55.686;37.532;2022-12-13T13:42:27;98801.16;;;0.42;84.19
75312;BME280;63906;55.686;37.532;2022-12-13T13:47:35;98837.63;;;0.48;84.51
75312;BME280;63906;55.686;37.532;2022-12-13T14:08:30;98861.66;;;0.86;84.63
75312;BME280;63906;55.686;37.532;2022-12-13T14:30:12;98846.06;;;0.78;82.24
75312;BME280;63906;55.686;37.532;2022-12-13T14:35:26;98834.13;;;0.85;83.76
75312;BME280;63906;55.686;37.532;2022-12-13T14:40:33;98838.72;;;0.91;83.42
75312;BME280;63906;55.686;37.532;2022-12-13T14:45:36;98835.41;;;0.81;83.72
75312;BME280;63906;55.686;37.532;2022-12-13T14:50:38;98795.63;;;0.54;83.87
75312;BME280;63906;55.686;37.532;2022-12-13T14:56:01;98832.25;;;0.87;83.32
75312;BME280;63906;55.686;37.532;2022-12-13T15:01:21;98805.13;;;0.64;83.43
75312;BME280;63906;55.686;37.532;2022-12-13T15:06:23;98819.88;;;0.81;83.39
75312;BME280;63906;55.686;37.532;2022-12-13T15:11:24;98801.34;;;0.58;83.84
75312;BME280;63906;55.686;37.532;2022-12-13T15:16:26;98835.47;;;0.89;82.89
75312;BME280;63906;55.686;37.532;2022-12-13T15:21:28;98825.25;;;0.70;82.70
75312;BME280;63906;55.686;37.532;2022-12-13T15:26:30;98830.88;;;0.83;81.80
75312;BME280;63906;55.686;37.532;2022-12-13T15:31:31;98843.19;;;0.81;82.03
75312;BME280;63906;55.686;37.532;2022-12-13T15:36:36;98819.97;;;0.62;82.04
75312;BME280;63906;55.686;37.532;2022-12-13T15:41:43;98826.13;;;0.61;82.70
75312;BME280;63906;55.686;37.532;2022-12-13T15:46:46;98845.41;;;0.76;82.19
75312;BME280;63906;55.686;37.532;2022-12-13T15:51:57;98849.19;;;0.82;83.33
75312;BME280;63906;55.686;37.532;2022-12-13T15:57:15;98852.19;;;0.77;83.26
75312;BME280;63906;55.686;37.532;2022-12-13T16:02:22;98838.00;;;0.81;82.20
75312;BME280;63906;55.686;37.532;2022-12-13T16:07:28;98842.59;;;0.87;83.89
75312;BME280;63906;55.686;37.532;2022-12-13T16:12:38;98817.25;;;0.63;82.57
75312;BME280;63906;55.686;37.532;2022-12-13T16:17:41;98806.75;;;0.65;83.14
75312;BME280;63906;55.686;37.532;2022-12-13T16:22:42;98831.47;;;0.77;81.91
75312;BME280;63906;55.686;37.532;2022-12-13T16:27:44;98834.44;;;0.82;80.77
75312;BME280;63906;55.686;37.532;2022-12-13T16:32:45;98821.97;;;0.68;81.18
75312;BME280;63906;55.686;37.532;2022-12-13T16:37:46;98791.94;;;0.39;81.76
75312;BME280;63906;55.686;37.532;2022-12-13T16:42:47;98816.53;;;0.43;82.68
75312;BME280;63906;55.686;37.532;2022-12-13T16:47:47;98810.25;;;0.28;82.60
75312;BME280;63906;55.686;37.532;2022-12-13T16:52:48;98808.84;;;0.34;82.45
75312;BME280;63906;55.686;37.532;2022-12-13T16:58:00;98804.88;;;0.39;81.67
75312;BME280;63906;55.686;37.532;2022-12-13T17:03:01;98764.66;;;0.17;81.75
75312;BME280;63906;55.686;37.532;2022-12-13T17:08:02;98790.56;;;0.35;81.52
75312;BME280;63906;55.686;37.532;2022-12-13T17:13:02;98796.78;;;0.42;82.20
75312;BME280;63906;55.686;37.532;2022-12-13T17:18:03;98751.94;;;0.24;81.89
75312;BME280;63906;55.686;37.532;2022-12-13T17:23:04;98751.13;;;0.23;82.39
75312;BME280;63906;55.686;37.532;2022-12-13T17:28:06;98767.13;;;0.37;82.95
75312;BME280;63906;55.686;37.532;2022-12-13T17:33:07;98777.50;;;0.54;84.38
75312;BME280;63906;55.686;37.532;2022-12-13T17:38:09;98744.28;;;0.32;84.97
75312;BME280;63906;55.686;37.532;2022-12-13T17:43:09;98763.75;;;0.54;84.77
75312;BME280;63906;55.686;37.532;2022-12-13T17:48:10;98731.69;;;0.37;84.53
75312;BME280;63906;55.686;37.532;2022-12-13T17:53:10;98706.34;;;0.23;84.50
75312;BME280;63906;55.686;37.532;2022-12-13T17:58:11;98716.16;;;0.37;83.74
75312;BME280;63906;55.686;37.532;2022-12-13T18:03:11;98704.50;;;0.33;83.40
75312;BME280;63906;55.686;37.532;2022-12-13T18:08:12;98712.28;;;0.51;84.79
75312;BME280;63906;55.686;37.532;2022-12-13T18:13:13;98715.69;;;0.51;84.74
75312;BME280;63906;55.686;37.532;2022-12-13T18:18:13;98669.50;;;0.29;85.01
75312;BME280;63906;55.686;37.532;2022-12-13T18:23:14;98689.78;;;0.51;85.32
75312;BME280;63906;55.686;37.532;2022-12-13T18:28:15;98686.50;;;0.49;85.57
75312;BME280;63906;55.686;37.532;2022-12-13T18:33:17;98623.91;;;0.28;85.62
75312;BME280;63906;55.686;37.532;2022-12-13T18:38:17;98652.19;;;0.47;85.69
75312;BME280;63906;55.686;37.532;2022-12-13T18:43:18;98643.56;;;0.57;85.98
75312;BME280;63906;55.686;37.532;2022-12-13T18:48:18;98587.28;;;0.23;85.57
75312;BME280;63906;55.686;37.532;2022-12-13T18:53:19;98635.41;;;0.51;85.92
75312;BME280;63906;55.686;37.532;2022-12-13T18:58:20;98620.06;;;0.32;85.43
75312;BME280;63906;55.686;37.532;2022-12-13T19:03:20;98643.25;;;0.60;85.97
75312;BME280;63906;55.686;37.532;2022-12-13T19:08:21;98623.44;;;0.50;85.34
75312;BME280;63906;55.686;37.532;2022-12-13T19:13:25;98603.25;;;0.36;85.79
75312;BME280;63906;55.686;37.532;2022-12-13T19:18:27;98604.34;;;0.51;86.00
75312;BME280;63906;55.686;37.532;2022-12-13T19:23:28;98593.47;;;0.48;85.99
75312;BME280;63906;55.686;37.532;2022-12-13T19:28:28;98605.59;;;0.47;85.85
75312;BME280;63906;55.686;37.532;2022-12-13T19:33:29;98591.59;;;0.32;85.79
75312;BME280;63906;55.686;37.532;2022-12-13T19:38:31;98590.09;;;0.30;86.08
75312;BME280;63906;55.686;37.532;2022-12-13T19:43:31;98552.22;;;0.03;84.87
75312;BME280;63906;55.686;37.532;2022-12-13T19:48:32;98572.09;;;0.20;85.00
75312;BME280;63906;55.686;37.532;2022-12-13T19:53:34;98548.78;;;0.20;84.99
75312;BME280;63906;55.686;37.532;2022-12-13T19:58:35;98554.47;;;0.06;85.44
75312;BME280;63906;55.686;37.532;2022-12-13T20:03:38;98563.13;;;0.14;84.73
75312;BME280;63906;55.686;37.532;2022-12-13T20:08:39;98563.94;;;-0.39;82.74
75312;BME280;63906;55.686;37.532;2022-12-13T20:13:40;98574.25;;;-0.11;84.65
75312;BME280;63906;55.686;37.532;2022-12-13T20:18:40;98541.81;;;-0.23;84.39
75312;BME280;63906;55.686;37.532;2022-12-13T20:23:42;98542.03;;;-0.17;84.89
75312;BME280;63906;55.686;37.532;2022-12-13T20:28:43;98520.75;;;-0.11;84.84
75312;BME280;63906;55.686;37.532;2022-12-13T20:33:44;98511.44;;;-0.39;82.33
75312;BME280;63906;55.686;37.532;2022-12-13T20:38:44;98489.03;;;-0.13;83.64
75312;BME280;63906;55.686;37.532;2022-12-13T20:43:45;98487.34;;;-0.22;84.47
75312;BME280;63906;55.686;37.532;2022-12-13T20:48:47;98504.78;;;-0.60;83.33
75312;BME280;63906;55.686;37.532;2022-12-13T20:53:49;98500.66;;;-0.52;84.57
75312;BME280;63906;55.686;37.532;2022-12-13T20:58:50;98497.03;;;-0.60;85.13
75312;BME280;63906;55.686;37.532;2022-12-13T21:03:55;98502.03;;;-1.03;82.33
75312;BME280;63906;55.686;37.532;2022-12-13T21:08:56;98508.44;;;-0.80;82.37
75312;BME280;63906;55.686;37.532;2022-12-13T21:14:07;98483.53;;;-0.99;83.42
75312;BME280;63906;55.686;37.532;2022-12-13T21:19:15;98520.09;;;-0.76;83.09
75312;BME280;63906;55.686;37.532;2022-12-13T21:24:17;98514.09;;;-0.94;81.77
75312;BME280;63906;55.686;37.532;2022-12-13T21:29:17;98499.94;;;-0.90;81.79
75312;BME280;63906;55.686;37.532;2022-12-13T21:34:18;98502.03;;;-1.03;81.59
75312;BME280;63906;55.686;37.532;2022-12-13T21:39:23;98451.47;;;-1.06;83.69
75312;BME280;63906;55.686;37.532;2022-12-13T21:44:23;98471.41;;;-0.53;83.95
75312;BME280;63906;55.686;37.532;2022-12-13T21:49:24;98469.13;;;-0.74;82.79
75312;BME280;63906;55.686;37.532;2022-12-13T21:54:24;98467.47;;;-0.57;83.74
75312;BME280;63906;55.686;37.532;2022-12-13T21:59:26;98447.09;;;-0.78;83.52
75312;BME280;63906;55.686;37.532;2022-12-13T22:04:28;98445.81;;;-1.10;83.27
75312;BME280;63906;55.686;37.532;2022-12-13T22:09:28;98416.53;;;-0.83;84.36
75312;BME280;63906;55.686;37.532;2022-12-13T22:14:29;98390.63;;;-1.09;83.83
75312;BME280;63906;55.686;37.532;2022-12-13T22:19:29;98397.16;;;-1.59;81.87
75312;BME280;63906;55.686;37.532;2022-12-13T22:24:30;98396.94;;;-1.76;82.04
75312;BME280;63906;55.686;37.532;2022-12-13T22:29:30;98400.97;;;-1.64;82.05
75312;BME280;63906;55.686;37.532;2022-12-13T22:34:31;98432.97;;;-1.47;82.73
75312;BME280;63906;55.686;37.532;2022-12-13T22:39:32;98394.66;;;-1.51;82.14
75312;BME280;63906;55.686;37.532;2022-12-13T22:44:33;98413.59;;;-1.33;82.51
75312;BME280;63906;55.686;37.532;2022-12-13T22:49:33;98387.31;;;-1.46;83.87
75312;BME280;63906;55.686;37.532;2022-12-13T22:54:34;98359.22;;;-1.77;82.05
75312;BME280;63906;55.686;37.532;2022-12-13T22:59:35;98395.97;;;-1.38;83.71
75312;BME280;63906;55.686;37.532;2022-12-13T23:04:35;98382.84;;;-1.26;83.66
75312;BME280;63906;55.686;37.532;2022-12-13T23:09:36;98342.06;;;-1.68;82.18
75312;BME280;63906;55.686;37.532;2022-12-13T23:14:37;98301.72;;;-1.87;82.46
75312;BME280;63906;55.686;37.532;2022-12-13T23:19:38;98309.31;;;-1.85;82.99
75312;BME280;63906;55.686;37.532;2022-12-13T23:24:38;98307.59;;;-1.67;82.31
75312;BME280;63906;55.686;37.532;2022-12-13T23:29:39;98322.72;;;-1.54;82.41
75312;BME280;63906;55.686;37.532;2022-12-13T23:34:39;98302.72;;;-1.98;80.81
75312;BME280;63906;55.686;37.532;2022-12-13T23:39:40;98293.25;;;-2.44;77.77
75312;BME280;63906;55.686;37.532;2022-12-13T23:44:40;98275.44;;;-2.00;80.49
75312;BME280;63906;55.686;37.532;2022-12-13T23:49:41;98260.84;;;-2.09;81.65
75312;BME280;63906;55.686;37.532;2022-12-13T23:54:41;98249.50;;;-2.17;81.32
75312;BME280;63906;55.686;37.532;2022-12-13T23:59:42;98274.47;;;-2.54;77.18
